Time;durP1;ratioP1;P1;durP2;ratioP2;P2;SDS_P1;SDS_P2;PMS_P1;PMS_P2;Temp;Humidity;BMP_temperature;BMP_pressure;BME280_temperature;BME280_humidity;BME280_pressure;Samples;Min_cycle;Max_cycle;Signal;HPM_P1;HPM_P2
2022/06/30 00:01:02;;;;;;;10.60;4.67;;;;;;;20.56;100.00;63000.00;5074459;28;20251;-73
2022/06/30 00:03:30;;;;;;;4.73;4.30;;;;;;;20.45;100.00;62985.50;5074159;28;20196;-73
2022/06/30 00:05:57;;;;;;;6.40;4.53;;;;;;;20.39;100.00;62981.59;5074665;28;20196;-75
2022/06/30 00:08:24;;;;;;;12.33;4.97;;;;;;;20.51;100.00;62994.56;5073719;28;20215;-74
2022/06/30 00:10:53;;;;;;;5.93;4.80;;;;;;;20.47;100.00;62990.25;5075580;28;20686;-74
2022/06/30 00:13:38;;;;;;;5.33;4.70;;;;;;;20.55;100.00;62998.91;5063529;28;20228;-74
2022/06/30 00:16:06;;;;;;;7.67;4.70;;;;;;;20.49;100.00;62992.41;5071508;28;20196;-74
2022/06/30 00:18:50;;;;;;;6.53;5.10;;;;;;;20.38;100.00;62980.53;5074766;28;20200;-74
2022/06/30 00:21:17;;;;;;;12.27;5.00;;;;;;;20.27;100.00;62968.63;5075353;28;20204;-74
2022/06/30 00:23:44;;;;;;;7.90;5.30;;;;;;;20.42;100.00;62987.44;5074297;28;20242;-74
2022/06/30 00:26:11;;;;;;;5.63;5.00;;;;;;;20.48;100.00;62996.53;5074223;28;20192;-74
2022/06/30 00:28:40;;;;;;;9.67;5.00;;;;;;;20.57;100.00;63005.69;5073705;28;20208;-75
2022/06/30 00:31:07;;;;;;;8.77;4.93;;;;;;;20.49;100.00;62992.41;5073748;28;20718;-73
2022/06/30 00:33:34;;;;;;;6.47;4.77;;;;;;;20.38;100.00;62980.53;5045855;28;20684;-75
2022/06/30 00:36:02;;;;;;;6.13;5.20;;;;;;;20.36;100.00;62988.72;5073692;28;20678;-74
2022/06/30 00:38:29;;;;;;;8.00;5.20;;;;;;;20.37;100.00;62979.44;5059527;28;20211;-75
2022/06/30 00:40:56;;;;;;;6.77;4.70;;;;;;;20.42;100.00;62990.03;5073460;28;20265;-74
2022/06/30 00:43:23;;;;;;;6.17;4.77;;;;;;;20.50;100.00;62993.50;5073702;28;20239;-74
2022/06/30 00:45:53;;;;;;;9.50;5.03;;;;;;;20.53;100.00;62996.75;5073768;28;20216;-74
2022/06/30 00:48:21;;;;;;;8.83;5.00;;;;;;;20.53;100.00;62999.34;5054746;28;20281;-74
2022/06/30 00:50:48;;;;;;;11.90;5.07;;;;;;;20.49;100.00;62992.41;5053479;28;20201;-76
2022/06/30 00:53:19;;;;;;;5.83;4.67;;;;;;;20.14;100.00;62959.72;5053056;28;20231;-75
2022/06/30 00:55:47;;;;;;;6.83;5.07;;;;;;;20.63;100.00;63007.56;5053523;28;20213;-73
2022/06/30 00:58:18;;;;;;;9.77;4.23;;;;;;;20.57;100.00;63001.06;5053162;28;20730;-74
2022/06/30 01:00:49;;;;;;;8.27;4.47;;;;;;;20.54;100.00;62997.84;5053227;28;20201;-74
2022/06/30 01:03:18;;;;;;;10.20;4.70;;;;;;;20.51;100.00;62999.22;5053102;28;20266;-76
2022/06/30 01:05:46;;;;;;;8.80;4.50;;;;;;;20.33;100.00;62975.13;5052322;28;20235;-73
2022/06/30 01:08:17;;;;;;;9.20;4.87;;;;;;;20.31;100.00;62972.94;5053109;28;20201;-73
2022/06/30 01:13:29;;;;;;;14.13;5.30;;;;;;;19.95;100.00;62939.19;5056824;28;20277;-73
2022/06/30 01:15:56;;;;;;;11.00;5.20;;;;;;;19.47;100.00;62882.69;5073143;28;20207;-72
2022/06/30 01:18:25;;;;;;;12.83;4.77;;;;;;;20.00;100.00;62939.41;5073126;28;20200;-74
2022/06/30 01:20:52;;;;;;;6.93;5.00;;;;;;;19.73;100.00;62910.22;5073024;28;20222;-74
2022/06/30 01:23:20;;;;;;;5.80;4.83;;;;;;;19.67;100.00;62903.75;5072795;28;20582;-74
2022/06/30 01:25:48;;;;;;;14.30;5.93;;;;;;;19.75;100.00;62912.94;5073125;28;20215;-74
2022/06/30 01:28:16;;;;;;;8.07;5.03;;;;;;;19.80;100.00;62920.91;5074199;28;20699;-75
2022/06/30 01:30:44;;;;;;;11.10;5.03;;;;;;;19.89;100.00;62928.06;5072755;28;20236;-74
2022/06/30 01:33:11;;;;;;;9.13;5.27;;;;;;;19.69;100.00;62909.03;5072751;28;20681;-74
2022/06/30 01:35:39;;;;;;;7.37;4.97;;;;;;;19.70;100.00;62907.53;5072507;28;20204;-73
2022/06/30 01:38:09;;;;;;;9.03;4.57;;;;;;;19.72;100.00;62909.16;5072471;28;20231;-74
2022/06/30 01:40:37;;;;;;;8.40;5.57;;;;;;;19.72;100.00;62909.16;5072545;28;20196;-76
2022/06/30 01:43:11;;;;;;;8.00;5.97;;;;;;;19.63;100.00;62904.59;5044831;28;20215;-73
2022/06/30 01:45:39;;;;;;;9.20;5.53;;;;;;;19.59;100.00;62893.06;5072662;28;20596;-74
2022/06/30 01:48:07;;;;;;;9.10;5.40;;;;;;;19.51;100.00;62887.00;5055692;28;20205;-74
2022/06/30 01:50:35;;;;;;;9.73;5.50;;;;;;;19.51;100.00;62891.63;5052265;28;20216;-74
2022/06/30 01:53:04;;;;;;;5.27;4.70;;;;;;;19.20;100.00;62859.19;5050980;28;20592;-73
2022/06/30 01:55:31;;;;;;;7.33;5.27;;;;;;;19.47;100.00;62884.72;5051689;28;20610;-73
2022/06/30 01:58:00;;;;;;;9.77;5.10;;;;;;;18.96;100.00;62832.72;5052384;28;20247;-74
2022/06/30 02:00:28;;;;;;;5.27;4.70;;;;;;;18.81;100.00;62814.50;5055343;28;20647;-74
2022/06/30 02:02:57;;;;;;;8.10;5.13;;;;;;;19.22;100.00;62858.22;5072257;28;20216;-74
2022/06/30 02:05:25;;;;;;;6.30;5.20;;;;;;;19.26;100.00;62859.97;5060950;28;20344;-73
2022/06/30 02:07:53;;;;;;;12.37;5.03;;;;;;;19.28;100.00;62865.25;5069594;28;20279;-74
2022/06/30 02:10:22;;;;;;;10.63;5.00;;;;;;;19.32;100.00;62869.03;5071940;28;20204;-75
2022/06/30 02:12:51;;;;;;;5.33;4.73;;;;;;;18.98;100.00;62830.25;5072047;28;20207;-74
2022/06/30 02:15:21;;;;;;;7.57;4.80;;;;;;;19.16;100.00;62854.88;5071688;28;20252;-76
2022/06/30 02:17:51;;;;;;;6.70;4.93;;;;;;;19.16;100.00;62849.16;5069511;28;20231;-73
2022/06/30 02:20:21;;;;;;;9.73;4.93;;;;;;;19.19;100.00;62852.94;5071898;28;20200;-74
2022/06/30 02:22:49;;;;;;;9.13;5.33;;;;;;;19.17;100.00;62855.41;5071905;28;20333;-74
2022/06/30 02:25:17;;;;;;;6.67;5.13;;;;;;;19.20;100.00;62859.19;5071914;28;20200;-75
2022/06/30 02:27:44;;;;;;;9.03;5.40;;;;;;;19.18;100.00;62853.91;5071576;28;20208;-73
2022/06/30 02:30:12;;;;;;;11.17;5.40;;;;;;;19.19;100.00;62852.94;5071435;28;20220;-74
2022/06/30 02:32:41;;;;;;;8.83;4.70;;;;;;;18.60;100.00;62789.22;5071494;28;20239;-74
2022/06/30 02:35:09;;;;;;;9.17;5.20;;;;;;;19.17;100.00;62855.97;5071370;28;20224;-74
2022/06/30 02:37:36;;;;;;;6.40;4.90;;;;;;;19.22;100.00;62858.78;5071589;28;20208;-76
2022/06/30 02:40:05;;;;;;;5.43;4.57;;;;;;;19.14;100.00;62850.13;5071320;28;20211;-74
2022/06/30 02:42:33;;;;;;;7.47;5.17;;;;;;;19.05;100.00;62843.00;5071321;28;20196;-74
2022/06/30 02:44:59;;;;;;;8.17;4.57;;;;;;;18.79;100.00;62809.75;5071488;28;20210;-76
2022/06/30 02:47:32;;;;;;;7.73;5.27;;;;;;;18.94;100.00;62825.94;5051864;28;20201;-72
2022/06/30 02:50:04;;;;;;;6.83;4.60;;;;;;;18.89;100.00;62825.72;5051165;28;20212;-77
2022/06/30 02:52:32;;;;;;;8.17;5.00;;;;;;;18.76;100.00;62811.66;5051152;28;20268;-74
2022/06/30 02:55:00;;;;;;;6.57;4.77;;;;;;;18.73;100.00;62803.28;5051181;28;20613;-75
2022/06/30 02:57:27;;;;;;;7.17;4.77;;;;;;;18.80;100.00;62813.41;5050881;28;20719;-73
2022/06/30 02:59:55;;;;;;;8.23;4.87;;;;;;;18.93;100.00;62830.03;5067011;28;20210;-75
2022/06/30 03:02:22;;;;;;;9.33;5.10;;;;;;;18.77;100.00;62807.59;5072152;28;20586;-74
2022/06/30 03:04:49;;;;;;;7.80;5.20;;;;;;;19.10;100.00;62847.84;5071368;28;20623;-75
2022/06/30 03:07:18;;;;;;;14.97;5.20;;;;;;;19.10;100.00;62843.22;5071160;28;20200;-74
2022/06/30 03:09:48;;;;;;;8.23;5.40;;;;;;;19.10;100.00;62847.84;5071022;28;20223;-75
2022/06/30 03:12:15;;;;;;;8.43;5.03;;;;;;;18.98;100.00;62830.25;5074798;28;20201;-73
2022/06/30 03:14:43;;;;;;;6.50;5.13;;;;;;;18.96;100.00;62830.69;5076837;28;20322;-74
2022/06/30 03:17:11;;;;;;;6.40;5.00;;;;;;;19.11;100.00;62849.47;5079301;28;20212;-75
2022/06/30 03:19:38;;;;;;;10.73;5.60;;;;;;;19.09;100.00;62847.31;5079968;28;20671;-70
2022/06/30 03:22:05;;;;;;;7.43;5.10;;;;;;;19.02;100.00;62839.75;5079155;28;20208;-74
2022/06/30 03:24:34;;;;;;;13.60;6.43;;;;;;;18.67;100.00;62796.78;5072001;28;20687;-72
2022/06/30 03:27:01;;;;;;;9.73;5.30;;;;;;;19.00;100.00;62829.84;5072247;28;20204;-73
2022/06/30 03:29:28;;;;;;;9.03;5.33;;;;;;;19.17;100.00;62850.78;5071273;28;20208;-75
2022/06/30 03:31:56;;;;;;;9.80;5.23;;;;;;;19.16;100.00;62849.69;5071864;28;20212;-74
2022/06/30 03:34:23;;;;;;;6.03;5.03;;;;;;;19.32;100.00;62869.03;5071458;28;20235;-75
2022/06/30 03:36:52;;;;;;;6.57;5.30;;;;;;;19.47;100.00;62882.13;5070914;28;20296;-77
2022/06/30 03:39:19;;;;;;;13.47;5.87;;;;;;;19.49;100.00;62886.88;5070761;28;20658;-74
2022/06/30 03:41:49;;;;;;;8.67;5.20;;;;;;;19.55;100.00;62893.91;5071038;28;20207;-75
2022/06/30 03:44:16;;;;;;;11.57;5.33;;;;;;;18.77;100.00;62812.75;5071057;28;20211;-74
2022/06/30 03:46:43;;;;;;;8.63;5.97;;;;;;;19.67;100.00;62908.91;5065613;28;20193;-73
2022/06/30 03:49:11;;;;;;;8.37;5.60;;;;;;;19.71;100.00;62908.06;5049219;28;20262;-74
2022/06/30 03:51:38;;;;;;;8.97;5.27;;;;;;;19.77;100.00;62914.56;5050307;28;20209;-74
2022/06/30 03:54:05;;;;;;;10.43;5.87;;;;;;;19.13;100.00;62849.06;5050399;28;20236;-74
2022/06/30 03:56:32;;;;;;;9.60;5.50;;;;;;;19.85;100.00;62928.91;5050081;28;20215;-74
2022/06/30 03:59:02;;;;;;;9.87;5.43;;;;;;;19.88;100.00;62929.03;5050496;28;20201;-74
2022/06/30 04:01:30;;;;;;;13.73;5.43;;;;;;;19.13;100.00;62849.06;5050459;28;20201;-73
2022/06/30 04:03:57;;;;;;;12.97;5.80;;;;;;;19.93;100.00;62931.84;5036467;28;20197;-73
2022/06/30 04:06:24;;;;;;;11.73;5.47;;;;;;;19.73;100.00;62915.41;5050417;28;20209;-73
2022/06/30 04:08:51;;;;;;;7.07;5.23;;;;;;;19.87;100.00;62930.53;5050324;28;20201;-74
2022/06/30 04:11:18;;;;;;;9.87;5.30;;;;;;;19.85;100.00;62928.91;5050193;28;20205;-73
2022/06/30 04:13:46;;;;;;;9.87;6.03;;;;;;;19.96;100.00;62940.28;5050227;28;20220;-74
2022/06/30 04:16:14;;;;;;;7.97;5.33;;;;;;;19.99;100.00;62940.91;5050329;28;20229;-75
2022/06/30 04:18:41;;;;;;;7.57;5.07;;;;;;;20.14;100.00;62955.09;5049958;28;20205;-73
2022/06/30 04:21:09;;;;;;;9.67;5.80;;;;;;;20.20;100.00;62961.06;5050386;28;20625;-73
2022/06/30 04:23:36;;;;;;;18.27;6.53;;;;;;;20.33;100.00;62980.28;5050225;28;20215;-74
2022/06/30 04:26:04;;;;;;;17.50;6.40;;;;;;;20.29;100.00;62975.97;5050449;28;20197;-75
2022/06/30 04:28:31;;;;;;;18.03;6.07;;;;;;;20.54;100.00;62997.28;5050467;28;20236;-73
2022/06/30 04:33:44;;;;;;;13.30;7.37;;;;;;;20.38;100.00;62983.13;5050760;28;20212;-74
2022/06/30 04:36:11;;;;;;;11.47;7.00;;;;;;;20.63;100.00;63010.16;5050048;28;20688;-74
2022/06/30 04:38:38;;;;;;;13.97;10.17;;;;;;;20.62;100.00;63006.47;5050059;28;20208;-74
2022/06/30 04:43:49;;;;;;;10.80;7.90;;;;;;;20.66;100.00;63013.41;5053870;28;20350;-74
2022/06/30 04:46:17;;;;;;;18.23;10.97;;;;;;;20.60;100.00;63009.50;5052969;28;20604;-75
2022/06/30 04:48:47;;;;;;;19.03;11.37;;;;;;;20.76;100.00;63021.63;5053524;28;20223;-73
2022/06/30 04:51:15;;;;;;;18.93;11.23;;;;;;;21.07;100.00;63054.09;5053513;28;20201;-73
2022/06/30 04:53:42;;;;;;;23.00;11.33;;;;;;;21.12;100.00;63059.50;5053018;28;20221;-74
2022/06/30 04:56:09;;;;;;;23.50;12.23;;;;;;;21.14;100.00;63064.25;5053462;28;20224;-74
2022/06/30 04:58:37;;;;;;;24.50;11.47;;;;;;;21.23;100.00;63071.94;5053293;28;20293;-74
2022/06/30 05:01:06;;;;;;;20.60;11.40;;;;;;;21.44;100.00;63099.31;5053318;28;20617;-75
2022/06/30 05:03:34;;;;;;;26.33;15.37;;;;;;;21.59;100.00;63113.50;5051852;28;20258;-74
2022/06/30 05:06:03;;;;;;;22.70;12.10;;;;;;;20.78;100.00;63018.06;5053231;28;20565;-73
2022/06/30 05:08:30;;;;;;;21.17;10.20;;;;;;;21.61;100.00;63112.56;5052658;28;20668;-73
2022/06/30 05:10:57;;;;;;;15.93;10.57;;;;;;;21.48;100.00;63098.47;5052919;28;20205;-73
2022/06/30 05:13:24;;;;;;;23.30;11.70;;;;;;;21.62;100.00;63113.63;5053180;28;20209;-75
2022/06/30 05:15:51;;;;;;;17.83;10.80;;;;;;;21.72;100.00;63129.63;5039205;28;20229;-73
2022/06/30 05:18:19;;;;;;;19.17;10.50;;;;;;;21.75;100.00;63127.72;5052985;28;20205;-74
2022/06/30 05:20:46;;;;;;;20.40;10.47;;;;;;;22.04;100.00;63159.13;5052398;28;20205;-75
2022/06/30 05:23:15;;;;;;;20.00;9.10;;;;;;;22.20;100.00;63176.44;5052559;28;20212;-75
2022/06/30 05:28:26;;;;;;;17.93;9.23;;;;;;;22.51;100.00;63210.03;5055596;28;20357;-75
2022/06/30 05:30:55;;;;;;;21.70;9.27;;;;;;;22.41;100.00;63198.66;5057821;28;20228;-75
2022/06/30 05:33:22;;;;;;;14.53;7.13;;;;;;;22.32;100.00;63191.50;5052649;28;20197;-76
2022/06/30 05:35:51;;;;;;;12.83;6.67;;;;;;;22.67;100.00;63227.41;5052288;28;20244;-74
2022/06/30 05:38:20;;;;;;;16.23;6.93;;;;;;;22.58;100.00;63222.84;5053006;28;20254;-73
2022/06/30 05:40:48;;;;;;;12.03;6.37;;;;;;;22.74;100.00;63233.91;5052333;28;20205;-74
2022/06/30 05:43:16;;;;;;;7.97;5.70;;;;;;;22.79;100.00;63239.88;5052497;28;20253;-77
2022/06/30 05:45:46;;;;;;;11.57;6.03;;;;;;;23.13;100.00;63276.72;5052276;28;20209;-74
2022/06/30 05:48:12;;;;;;;12.63;6.67;;;;;;;23.05;100.00;63270.09;5047655;28;20594;-73
2022/06/30 05:50:40;;;;;;;8.13;6.43;;;;;;;23.48;100.00;63311.53;5052453;28;20263;-75
2022/06/30 05:53:07;;;;;;;16.97;6.83;;;;;;;23.61;100.00;63327.69;5051018;28;20227;-75
2022/06/30 05:55:36;;;;;;;13.60;6.90;;;;;;;23.81;100.00;63349.94;5064207;28;20308;-74
2022/06/30 05:58:04;;;;;;;16.03;7.70;;;;;;;23.43;100.00;63309.25;5072181;28;20275;-75
2022/06/30 06:00:35;;;;;;;17.23;8.77;;;;;;;23.38;100.00;63308.50;5072264;28;20197;-73
2022/06/30 06:03:02;;;;;;;16.47;9.67;;;;;;;24.19;100.00;63388.56;5072135;28;20196;-74
2022/06/30 06:05:31;;;;;;;23.43;12.30;;;;;;;24.10;100.00;63380.88;5071942;28;20197;-73
2022/06/30 06:08:06;;;;;;;24.47;12.23;;;;;;;23.79;100.00;63347.22;5071365;28;20243;-74
2022/06/30 06:10:33;;;;;;;24.87;13.93;;;;;;;24.41;100.00;63419.19;5072022;28;20210;-74
2022/06/30 06:13:01;;;;;;;35.33;15.50;;;;;;;24.74;100.00;63449.81;5071793;28;20262;-75
2022/06/30 06:15:28;;;;;;;26.20;12.47;;;;;;;24.53;100.00;63432.22;5043578;28;20330;-75
2022/06/30 06:17:55;;;;;;;25.07;10.80;;;;;;;24.65;100.00;63440.03;5072102;28;20198;-72
2022/06/30 06:20:22;;;;;;;22.10;10.37;;;;;;;24.76;100.00;63457.19;5071727;28;20220;-74
2022/06/30 06:22:49;;;;;;;14.60;9.57;;;;;;;24.95;100.00;63475.75;5071763;28;20200;-73
2022/06/30 06:25:17;;;;;;;18.50;9.97;;;;;;;24.95;100.00;63477.81;5071651;28;20215;-73
2022/06/30 06:29:05;;;;;;;16.63;9.90;;;;;;;25.43;100.00;63524.75;5071399;28;20206;-73
2022/06/30 06:30:33;;;;;;;17.00;9.90;;;;;;;25.56;100.00;63544.09;5071089;28;20707;-74
2022/06/30 06:33:01;;;;;;;17.53;10.07;;;;;;;25.21;100.00;63500.31;5071397;28;20255;-75
2022/06/30 06:35:28;;;;;;;20.53;9.93;;;;;;;25.86;100.00;63576.13;5070965;28;20238;-74
2022/06/30 06:37:56;;;;;;;21.20;10.23;;;;;;;25.94;100.00;63580.16;5062868;28;20197;-76
2022/06/30 06:40:25;;;;;;;20.50;9.77;;;;;;;26.13;100.00;63599.75;5065924;28;20677;-75
2022/06/30 06:42:52;;;;;;;14.90;9.57;;;;;;;26.47;100.00;63639.31;5071124;28;20743;-75
2022/06/30 06:45:20;;;;;;;18.27;10.47;;;;;;;26.59;100.00;63649.75;5071307;28;20215;-73
2022/06/30 06:47:49;;;;;;;20.63;9.47;;;;;;;26.75;100.00;63667.16;5056940;28;20275;-75
2022/06/30 06:50:20;;;;;;;20.87;10.50;;;;;;;26.87;100.00;63685.44;5051078;28;20559;-74
2022/06/30 06:52:47;;;;;;;20.93;9.47;;;;;;;26.82;100.00;63674.25;5051217;28;20225;-74
2022/06/30 06:55:16;;;;;;;13.60;9.00;;;;;;;26.90;100.00;63683.50;5051129;28;20224;-73
2022/06/30 06:57:43;;;;;;;17.30;9.10;;;;;;;27.21;100.00;63719.81;5051269;28;20221;-74
2022/06/30 07:00:13;;;;;;;15.13;8.43;;;;;;;27.72;100.00;63771.63;5051413;28;20606;-72
2022/06/30 07:02:41;;;;;;;14.87;8.77;;;;;;;27.74;100.00;63773.81;5051190;28;20209;-75
2022/06/30 07:05:11;;;;;;;13.57;8.47;;;;;;;28.03;100.00;63805.41;5050387;28;20572;-75
2022/06/30 07:07:38;;;;;;;18.77;8.33;;;;;;;28.12;100.00;63815.19;5051267;28;20588;-76
2022/06/30 07:10:08;;;;;;;17.40;8.10;;;;;;;27.91;100.00;63792.31;5050785;28;20205;-73
2022/06/30 07:12:35;;;;;;;13.13;7.43;;;;;;;27.44;100.00;63747.50;5051034;28;20209;-74
2022/06/30 07:15:03;;;;;;;12.83;7.20;;;;;;;27.48;100.00;63749.22;5050650;28;20201;-75
2022/06/30 07:17:36;;;;;;;26.17;8.80;;;;;;;27.73;100.00;63777.97;5050500;28;20222;-74
2022/06/30 07:20:03;;;;;;;13.23;7.47;;;;;;;27.97;100.00;63804.13;5050738;28;20579;-74
2022/06/30 07:22:31;;;;;;;15.30;7.43;;;;;;;27.99;100.00;63801.06;5050572;28;20224;-74
2022/06/30 07:24:58;;;;;;;21.60;8.27;;;;;;;27.84;100.00;63784.69;5050679;28;20209;-74
2022/06/30 07:27:25;;;;;;;17.33;8.53;;;;;;;28.14;100.00;63823.16;5050346;28;20228;-74
2022/06/30 07:29:52;;;;;;;21.63;10.23;;;;;;;28.36;100.00;63841.31;5058683;28;20232;-74
2022/06/30 07:32:20;;;;;;;19.20;8.97;;;;;;;28.00;100.00;63802.13;5050533;28;20284;-75
2022/06/30 07:34:48;;;;;;;18.80;9.17;;;;;;;27.78;100.00;63778.16;5049445;28;20209;-74
2022/06/30 07:37:17;;;;;;;20.23;8.30;;;;;;;28.01;100.00;63805.84;5050233;28;20319;-75
2022/06/30 07:39:46;;;;;;;24.43;8.60;;;;;;;28.38;100.00;63843.50;5050401;28;20255;-73
2022/06/30 07:42:13;;;;;;;16.97;9.73;;;;;;;28.43;100.00;63848.97;5049187;28;20216;-74
2022/06/30 07:44:40;;;;;;;21.83;10.67;;;;;;;28.74;100.00;63879.56;5049849;28;20623;-74
2022/06/30 07:47:09;;;;;;;16.33;9.37;;;;;;;28.64;100.00;63871.84;5049344;28;20208;-75
2022/06/30 07:49:38;;;;;;;16.13;7.80;;;;;;;29.10;100.00;63921.41;5050572;28;20201;-74
2022/06/30 07:52:06;;;;;;;27.80;8.77;;;;;;;28.96;100.00;63909.31;5050406;28;20279;-74
2022/06/30 07:54:33;;;;;;;16.83;7.97;;;;;;;28.97;100.00;63907.81;5050203;28;20676;-74
2022/06/30 07:57:03;;;;;;;12.33;7.40;;;;;;;28.53;100.00;63859.31;5050160;28;20224;-76
2022/06/30 07:59:30;;;;;;;14.97;7.87;;;;;;;28.68;100.00;63881.44;5050100;28;20685;-74
2022/06/30 08:01:58;;;;;;;12.83;6.17;;;;;;;28.91;100.00;63903.88;5050030;28;20256;-73
2022/06/30 08:04:25;;;;;;;16.57;6.07;;;;;;;28.76;100.00;63890.16;5050015;28;20201;-74
2022/06/30 08:06:52;;;;;;;10.83;6.60;;;;;;;29.10;100.00;63916.69;5050200;28;20212;-74
2022/06/30 08:09:20;;;;;;;22.13;9.20;;;;;;;29.18;100.00;63935.94;5048836;28;20284;-73
2022/06/30 08:11:47;;;;;;;10.33;7.13;;;;;;;29.33;100.00;63940.69;5049879;28;20274;-74
2022/06/30 08:14:15;;;;;;;11.43;7.10;;;;;;;29.72;100.00;63989.03;5050324;28;20205;-75
2022/06/30 08:16:43;;;;;;;13.57;7.43;;;;;;;29.84;100.00;64001.56;5051421;28;20287;-75
2022/06/30 08:19:10;;;;;;;8.50;6.90;;;;;;;30.12;100.00;64032.09;5053969;28;20206;-74
2022/06/30 08:21:37;;;;;;;13.97;6.97;;;;;;;30.56;100.00;64079.56;5053950;28;20215;-73
2022/06/30 08:24:05;;;;;;;13.87;7.20;;;;;;;30.06;100.00;64025.56;5060708;28;20202;-75
2022/06/30 08:26:32;;;;;;;11.03;6.17;;;;;;;29.96;100.00;64020.44;5073567;28;20636;-75
2022/06/30 08:29:00;;;;;;;8.07;5.90;;;;;;;29.85;100.00;64002.66;5074006;28;20301;-73
2022/06/30 08:31:29;;;;;;;9.70;5.57;;;;;;;29.70;100.00;63981.03;5073886;28;20241;-74
2022/06/30 08:33:56;;;;;;;10.43;5.50;;;;;;;29.12;100.00;63921.50;5073609;28;20293;-75
2022/06/30 08:36:24;;;;;;;9.00;5.70;;;;;;;28.87;100.00;63896.91;5073430;28;20221;-73
2022/06/30 08:38:51;;;;;;;7.23;5.20;;;;;;;29.57;100.00;63972.09;5073305;28;20205;-74
2022/06/30 08:44:03;;;;;;;10.43;5.73;;;;;;;29.94;100.00;64012.47;5069388;28;20286;-74
2022/06/30 08:46:33;;;;;;;10.67;5.50;;;;;;;30.04;100.00;64023.91;5060420;28;20217;-73
2022/06/30 08:49:00;;;;;;;11.67;5.00;;;;;;;30.14;100.00;64033.72;5053920;28;20257;-73
2022/06/30 08:51:30;;;;;;;9.67;6.07;;;;;;;30.10;100.00;64029.91;5053134;28;20201;-75
2022/06/30 08:53:59;;;;;;;6.73;5.30;;;;;;;30.33;100.00;64054.47;5053159;28;20325;-74
2022/06/30 08:56:30;;;;;;;8.77;5.03;;;;;;;30.61;100.00;64085.56;5053483;28;20227;-75
2022/06/30 08:58:58;;;;;;;12.50;5.50;;;;;;;31.23;100.00;64152.69;5053266;28;20200;-75
2022/06/30 09:01:26;;;;;;;15.37;4.83;;;;;;;31.65;100.00;64192.75;5053277;28;20201;-74
2022/06/30 09:03:56;;;;;;;11.77;5.77;;;;;;;31.08;100.00;64136.31;5052838;28;20194;-75
2022/06/30 09:06:23;;;;;;;10.07;5.20;;;;;;;31.22;100.00;64154.25;5052897;28;20667;-75
2022/06/30 09:08:51;;;;;;;7.17;5.10;;;;;;;31.50;100.00;64181.63;5052907;28;20194;-75
2022/06/30 09:11:18;;;;;;;10.37;5.00;;;;;;;31.78;100.00;64214.84;5052995;28;20209;-75
2022/06/30 09:13:48;;;;;;;6.90;4.33;;;;;;;31.95;100.00;64230.25;5052768;28;20631;-75
2022/06/30 09:16:17;;;;;;;9.90;4.97;;;;;;;30.95;100.00;64118.97;5053009;28;20316;-74
2022/06/30 09:18:45;;;;;;;9.30;4.40;;;;;;;31.61;100.00;64188.38;5052858;28;20209;-74
2022/06/30 09:21:18;;;;;;;10.73;5.17;;;;;;;31.88;100.00;64228.41;5052755;28;20580;-74
2022/06/30 09:23:47;;;;;;;9.43;4.93;;;;;;;32.37;100.00;64276.69;5052970;28;20228;-75
2022/06/30 09:26:19;;;;;;;16.40;4.50;;;;;;;32.09;100.00;64240.81;5052306;28;20202;-74
2022/06/30 09:28:50;;;;;;;9.60;4.50;;;;;;;32.59;100.00;64300.19;5057385;28;20232;-75
2022/06/30 09:31:33;;;;;;;6.27;4.20;;;;;;;32.24;100.00;64259.28;5056018;28;20253;-75
2022/06/30 09:34:16;;;;;;;7.80;4.70;;;;;;;32.08;100.00;64245.00;5053114;28;20206;-75
2022/06/30 09:36:46;;;;;;;9.80;4.17;;;;;;;32.30;100.00;64269.03;5052707;28;20253;-75
2022/06/30 09:39:15;;;;;;;6.80;4.40;;;;;;;32.65;100.00;64306.19;5053046;28;20657;-75
2022/06/30 09:41:43;;;;;;;8.10;4.33;;;;;;;32.83;100.00;64326.41;5052752;28;20205;-75
2022/06/30 09:44:21;;;;;;;10.87;3.80;;;;;;;32.46;100.00;64288.09;5054632;28;20691;-75
2022/06/30 09:46:58;;;;;;;5.77;3.80;;;;;;;32.72;100.00;64313.84;5054921;28;20293;-75
2022/06/30 09:49:32;;;;;;;9.47;4.10;;;;;;;32.78;100.00;64317.78;5054946;28;20202;-76
2022/06/30 09:52:02;;;;;;;7.33;3.73;;;;;;;33.29;100.00;64376.16;5054693;28;20199;-73
2022/06/30 09:54:33;;;;;;;4.70;3.40;;;;;;;33.05;100.00;64349.94;5056268;28;20694;-74
2022/06/30 09:57:06;;;;;;;10.40;3.90;;;;;;;33.00;100.00;64345.00;5074857;28;20238;-73
2022/06/30 09:59:34;;;;;;;8.50;3.60;;;;;;;32.79;100.00;64321.50;5073519;28;20201;-74
2022/06/30 10:02:06;;;;;;;6.60;4.37;;;;;;;33.18;100.00;64364.69;5072731;28;20261;-75
2022/06/30 10:04:33;;;;;;;5.67;3.70;;;;;;;33.25;100.00;64371.78;5071818;28;20315;-75
2022/06/30 10:07:04;;;;;;;5.40;3.70;;;;;;;33.26;100.00;64370.78;5072442;28;20207;-75
2022/06/30 10:09:32;;;;;;;11.03;3.93;;;;;;;32.96;100.00;64340.09;5072182;28;20293;-74
2022/06/30 10:11:59;;;;;;;6.97;3.60;;;;;;;32.48;100.00;64288.16;5070757;28;20208;-76
2022/06/30 10:14:31;;;;;;;4.57;3.37;;;;;;;32.83;100.00;64325.88;5071829;28;20664;-75
2022/06/30 10:16:58;;;;;;;6.63;3.87;;;;;;;32.93;100.00;64334.16;5071706;28;20282;-74
2022/06/30 10:19:26;;;;;;;5.73;3.63;;;;;;;32.79;100.00;64322.03;5072112;28;20209;-74
2022/06/30 10:21:54;;;;;;;7.50;4.60;;;;;;;33.52;100.00;64401.34;5071857;28;20215;-76
2022/06/30 10:24:23;;;;;;;6.27;3.63;;;;;;;33.80;100.00;64431.41;5071397;28;20252;-73
2022/06/30 10:29:35;;;;;;;5.33;3.73;;;;;;;33.69;90.67;64414.63;5071333;28;20265;-74
2022/06/30 10:32:10;;;;;;;4.87;3.40;;;;;;;33.46;89.00;64394.22;5071631;28;20207;-76
2022/06/30 10:34:40;;;;;;;6.60;3.67;;;;;;;33.41;85.99;64386.09;5043361;28;20202;-75
2022/06/30 10:37:16;;;;;;;7.33;3.33;;;;;;;33.76;88.55;64422.31;5070944;28;20235;-74
2022/06/30 10:39:51;;;;;;;7.70;3.20;;;;;;;34.18;83.53;64472.44;5070393;28;20211;-75
2022/06/30 10:42:44;;;;;;;6.40;3.17;;;;;;;33.57;70.24;64406.81;5071341;28;20204;-75
2022/06/30 10:45:35;;;;;;;13.13;3.77;;;;;;;34.07;92.32;64460.44;5049191;28;20204;-74
2022/06/30 10:48:04;;;;;;;8.23;3.97;;;;;;;34.12;96.76;64466.44;5054849;28;20210;-75
2022/06/30 10:50:34;;;;;;;12.80;3.50;;;;;;;34.59;82.97;64512.06;5051198;28;20651;-76
2022/06/30 10:53:02;;;;;;;9.80;3.33;;;;;;;34.73;83.95;64532.66;5051342;28;20218;-74
2022/06/30 10:55:43;;;;;;;5.97;3.00;;;;;;;34.85;80.66;64548.44;5037502;28;20683;-74
2022/06/30 10:58:12;;;;;;;7.03;3.43;;;;;;;34.81;82.29;64539.31;5051063;28;20316;-74
2022/06/30 11:00:50;;;;;;;3.47;3.10;;;;;;;34.94;80.64;64555.66;5050959;28;20599;-74
2022/06/30 11:03:59;;;;;;;7.73;3.40;;;;;;;34.94;82.01;64555.66;5050971;28;20661;-76
2022/06/30 11:06:56;;;;;;;6.40;3.63;;;;;;;35.02;80.50;64563.88;5050802;28;20235;-74
2022/06/30 11:10:05;;;;;;;6.80;3.33;;;;;;;34.60;77.77;64515.78;5033921;28;20681;-74
2022/06/30 11:13:06;;;;;;;8.80;3.50;;;;;;;34.92;86.77;64553.47;5050833;28;20206;-75
2022/06/30 11:15:58;;;;;;;6.27;3.47;;;;;;;34.79;82.66;64533.94;5051074;28;20286;-74
2022/06/30 11:18:27;;;;;;;15.97;3.53;;;;;;;33.89;85.51;64439.16;5050400;28;20295;-75
2022/06/30 11:20:55;;;;;;;9.47;3.63;;;;;;;34.44;83.43;64503.56;5050690;28;20199;-74
2022/06/30 11:23:24;;;;;;;4.53;3.03;;;;;;;34.89;77.70;64550.72;5050733;28;20260;-75
2022/06/30 11:28:42;;;;;;;5.23;3.03;;;;;;;35.56;71.95;64623.03;5055174;28;20221;-74
2022/06/30 11:31:31;;;;;;;5.23;2.97;;;;;;;35.59;69.38;64629.53;5039886;28;20252;-75
2022/06/30 11:34:02;;;;;;;5.83;2.90;;;;;;;35.24;66.72;64588.50;5050390;28;20261;-75
2022/06/30 11:36:32;;;;;;;6.37;2.90;;;;;;;35.50;68.57;64616.44;5050786;28;20287;-74
2022/06/30 11:39:01;;;;;;;7.80;2.67;;;;;;;35.24;66.57;64588.50;5050606;28;20239;-76
2022/06/30 11:44:16;;;;;;;5.60;2.80;;;;;;;34.33;70.89;64489.41;5050633;28;20303;-76
2022/06/30 11:47:05;;;;;;;8.80;3.10;;;;;;;34.16;71.18;64470.25;5049465;28;20681;-75
2022/06/30 11:49:40;;;;;;;5.03;2.67;;;;;;;34.54;66.56;64511.88;5047546;28;20201;-75
2022/06/30 11:52:15;;;;;;;3.60;2.70;;;;;;;35.21;63.76;64585.25;5041393;28;20709;-74
2022/06/30 11:54:45;;;;;;;8.07;2.73;;;;;;;34.90;68.25;64551.28;5054462;28;20205;-75